Altamont, SD

12:44 PM CDT on September 18, 2014 (GMT -0500)
Canby | Change Station
CLOSE
Current Station
Airport
Location: Canby,
Elevation: 1194 ft
Nearby Weather Stations

Elev 1194 ft 44.73 °N, 96.26 °W | Updated 10 minutes ago

Mostly Cloudy
Mostly Cloudy
74 °F
Feels Like 74 °F
N
9
Wind Variable Wind from South
Gusts 16 mph

Today
High -- | Low -- °F
--% Chance of Precip.
Yesterday
High -- | Low -- °F
Precip. -- in
7:09 AM 7:31 PM
Waning Crescent, 25% visible
Pressure 30.01 in
Visibility 10.0 miles
Clouds Mostly Cloudy 5000 ft
Dew Point 56 °F
Humidity 53%
Rainfall 0.00 in
Snow Depth 0 in
UV 4 out of 12
Pollen 5.20 out of 12
Air Quality Not available.
Flu Activity Not available.
METAR KCNB 181734Z AUTO 18008G14KT 10SM BKN050 23/13 A3001 RMK AO2 T02310131

More Conditions Fewer Conditions

Pressure 30.01 in
Visibility 10.0 miles
Clouds Mostly Cloudy 5000 ft
Dew Point 56 °F
Humidity 53%
Rainfall 0.00 in
Snow Depth 0 in
UV 4 out of 12
Pollen 5.20 out of 12
Air Quality Not available.
Flu Activity Not available.
METAR KCNB 181734Z AUTO 18008G14KT 10SM BKN050 23/13 A3001 RMK AO2 T02310131

More Conditions Fewer Conditions

10-Day Weather Forecast

Almanac

Astronomy

Sep. 18, 2014 Rise Set
Actual Time 7:09 AM CDT 7:31 PM CDT
Civil Twilight 6:39 AM CDT 8:00 PM CDT
Nautical Twilight 6:05 AM CDT 8:35 PM CDT
Astronomical Twilight 5:29 AM CDT 9:10 PM CDT
Moon 1:52 AM CDT 4:32 PM CDT
Length of Visible Light 13h 21m
Length of Day
12h 22m
Tomorrow will be 3m 5s shorter.
Waning Crescent, 25% of the Moon is Illuminated
Today
Waning Crescent
Sep 24
New
Oct 1
First Quarter
Oct 8
Full
Oct 15
Last Quarter

Today's Extremes

State Highs State Lows

Community

WunderPhotos

Upload Photos

1,754,409 photos uploaded!

Nearby

Snow Depth

Station Depth Elevation
Blind Park 0 in 6890 ft

Earthquake Activity

City Distance Mag. Time & Date
No recent earthquake activity has been reported nearby.
Minimum magnitude displayed is 2.5.

Coastal Water Temperatures

Place Temperature
No Stations Reporting

Nearby Weather Stations